Time;durP1;ratioP1;P1;durP2;ratioP2;P2;SDS_P1;SDS_P2;PMS_P1;PMS_P2;Temp;Humidity;BMP_temperature;BMP_pressure;BME280_temperature;BME280_humidity;BME280_pressure;Samples;Min_cycle;Max_cycle;Signal;HPM_P1;HPM_P2
2021/03/22 00:00:26;;;;;;;4.88;3.15;;;;;;;2.24;73.10;92573.75;2064514;69;20156;-75
2021/03/22 00:02:52;;;;;;;6.55;3.08;;;;;;;2.31;73.46;92575.78;2067673;69;20220;-75
2021/03/22 00:05:18;;;;;;;7.07;3.90;;;;;;;2.34;73.82;92571.91;2067726;69;20148;-77
2021/03/22 00:07:44;;;;;;;3.90;2.70;;;;;;;2.44;73.22;92574.81;2067596;69;20148;-83
2021/03/22 00:10:11;;;;;;;7.18;3.20;;;;;;;2.41;73.57;92581.50;2067798;69;20206;-76
2021/03/22 00:12:37;;;;;;;5.43;3.03;;;;;;;2.41;73.63;92575.94;2064481;69;20151;-77
2021/03/22 00:15:04;;;;;;;5.43;3.30;;;;;;;2.30;73.93;92565.97;2067726;69;20148;-80
2021/03/22 00:17:30;;;;;;;3.42;2.78;;;;;;;2.34;74.17;92571.13;2067923;69;20164;-79
2021/03/22 00:19:56;;;;;;;4.43;2.80;;;;;;;2.38;72.88;92560.38;2067783;69;20653;-77
2021/03/22 00:22:21;;;;;;;3.60;2.90;;;;;;;2.14;73.45;92559.72;2064489;69;20145;-79
2021/03/22 00:24:48;;;;;;;4.63;3.00;;;;;;;2.00;74.56;92555.69;2064551;69;20171;-75
2021/03/22 00:27:14;;;;;;;5.22;2.90;;;;;;;2.22;74.54;92554.13;2067749;69;20536;-78
2021/03/22 00:29:40;;;;;;;5.15;3.08;;;;;;;2.18;74.35;92551.75;2067893;69;20145;-83
2021/03/22 00:32:12;;;;;;;4.93;2.70;;;;;;;2.22;73.84;92556.91;2067870;69;20208;-86
2021/03/22 00:34:39;;;;;;;4.32;2.85;;;;;;;2.16;74.68;92550.84;2064523;69;20145;-83
2021/03/22 00:37:05;;;;;;;3.90;2.78;;;;;;;2.23;74.21;92552.84;2067922;69;20192;-81
2021/03/22 00:39:30;;;;;;;4.32;2.97;;;;;;;2.16;73.94;92545.28;2067599;69;20259;-83
2021/03/22 00:42:08;;;;;;;4.05;2.72;;;;;;;2.25;73.81;92547.47;2068025;69;20144;-84
2021/03/22 00:44:34;;;;;;;4.10;2.50;;;;;;;2.16;73.26;92542.50;2067679;69;20152;-79
2021/03/22 00:46:59;;;;;;;3.28;2.35;;;;;;;2.35;73.42;92542.06;2067684;69;20686;-80
2021/03/22 00:49:25;;;;;;;4.80;2.95;;;;;;;2.01;73.74;92546.03;2068509;69;20203;-81
2021/03/22 00:51:51;;;;;;;4.20;3.30;;;;;;;1.82;75.59;92537.41;2064578;69;20241;-82
2021/03/22 00:54:16;;;;;;;5.30;3.40;;;;;;;2.13;74.55;92544.34;2067892;69;20180;-82
2021/03/22 00:56:42;;;;;;;4.10;3.10;;;;;;;1.98;74.11;92550.69;2067828;69;20148;-84
2021/03/22 00:59:07;;;;;;;4.72;3.50;;;;;;;2.16;74.05;92546.03;2068115;69;20232;-83
2021/03/22 01:01:34;;;;;;;6.40;3.72;;;;;;;2.17;75.16;92538.41;2067915;69;20214;-76
2021/03/22 01:04:00;;;;;;;4.65;3.25;;;;;;;2.19;74.03;92533.78;2067880;69;20608;-86
2021/03/22 01:06:29;;;;;;;5.07;3.10;;;;;;;2.08;74.30;92522.34;2067832;69;20136;-86
2021/03/22 01:08:55;;;;;;;5.90;3.92;;;;;;;1.93;75.03;92532.19;2069407;69;20227;-78
2021/03/22 01:11:21;;;;;;;5.40;3.53;;;;;;;1.78;75.33;92527.41;2066691;69;20156;-83
2021/03/22 01:13:59;;;;;;;6.10;2.95;;;;;;;1.69;76.42;92516.13;2068257;69;20654;-86
2021/03/22 01:16:36;;;;;;;4.15;2.92;;;;;;;1.82;76.23;92518.69;2068012;69;20227;-85
2021/03/22 01:19:16;;;;;;;4.47;2.40;;;;;;;1.76;75.63;92527.22;2067922;69;20148;-85
2021/03/22 01:21:43;;;;;;;5.85;2.50;;;;;;;2.07;74.86;92518.84;2068482;69;20161;-82
2021/03/22 01:24:10;;;;;;;3.33;2.40;;;;;;;2.16;74.56;92525.84;2068178;69;20182;-82
2021/03/22 01:26:37;;;;;;;7.80;3.03;;;;;;;2.04;74.20;92517.16;2067731;69;20636;-79
2021/03/22 01:29:07;;;;;;;3.30;2.50;;;;;;;1.94;75.32;92517.00;2067636;69;20165;-83
2021/03/22 01:31:33;;;;;;;3.83;2.20;;;;;;;2.11;74.21;92518.44;2067709;69;20228;-83
2021/03/22 01:33:58;;;;;;;2.90;2.00;;;;;;;1.97;74.78;92515.91;2067640;69;20156;-82
2021/03/22 01:36:27;;;;;;;2.55;2.05;;;;;;;2.03;74.58;92510.13;2067584;69;20582;-79
2021/03/22 01:38:57;;;;;;;2.60;2.00;;;;;;;1.96;75.24;92511.63;2067538;69;20244;-85
2021/03/22 01:41:50;;;;;;;2.47;1.90;;;;;;;2.10;73.91;92498.25;2067598;69;20172;-77
2021/03/22 01:44:16;;;;;;;2.28;1.70;;;;;;;2.08;73.84;92503.66;2067623;69;20232;-77
2021/03/22 01:47:04;;;;;;;2.65;2.00;;;;;;;1.98;74.64;92497.94;2067522;69;20149;-77
2021/03/22 01:49:38;;;;;;;3.38;1.83;;;;;;;2.14;74.19;92504.16;2064071;69;20179;-80
2021/03/22 01:52:04;;;;;;;3.00;2.30;;;;;;;2.14;73.54;92504.16;2067581;69;20152;-77
2021/03/22 01:54:30;;;;;;;4.18;2.50;;;;;;;1.75;74.42;92508.38;2064303;69;20186;-80
2021/03/22 01:57:21;;;;;;;3.50;2.20;;;;;;;1.96;74.77;92510.88;2067637;69;20268;-84
2021/03/22 01:59:47;;;;;;;2.97;2.28;;;;;;;1.91;75.16;92506.28;2067693;69;20560;-83
2021/03/22 02:02:12;;;;;;;2.80;2.40;;;;;;;2.10;74.18;92512.13;2067694;69;20244;-83
2021/03/22 02:04:38;;;;;;;3.53;2.33;;;;;;;2.12;73.79;92509.56;2067489;69;20175;-79
2021/03/22 02:07:04;;;;;;;3.28;2.40;;;;;;;2.09;73.56;92507.88;2067712;69;20218;-77
2021/03/22 02:09:30;;;;;;;3.67;2.38;;;;;;;2.11;73.69;92505.31;2064553;69;20259;-78
2021/03/22 02:11:55;;;;;;;2.90;2.20;;;;;;;2.07;73.81;92507.72;2067967;69;20264;-78
2021/03/22 02:14:21;;;;;;;3.88;2.10;;;;;;;1.89;74.61;92520.00;2068070;69;20195;-75
2021/03/22 02:16:50;;;;;;;3.15;2.15;;;;;;;1.95;74.06;92520.53;2067976;69;20155;-77
2021/03/22 02:19:43;;;;;;;2.95;2.28;;;;;;;2.22;73.74;92518.78;2068272;69;20148;-81
2021/03/22 02:22:24;;;;;;;2.47;2.10;;;;;;;2.23;72.89;92522.28;2068144;69;20310;-80
2021/03/22 02:25:31;;;;;;;3.60;2.28;;;;;;;2.28;73.52;92522.06;2065300;69;20172;-82
2021/03/22 02:28:27;;;;;;;3.15;2.20;;;;;;;2.28;72.44;92521.34;2064121;69;20176;-80
2021/03/22 02:31:13;;;;;;;2.53;1.83;;;;;;;2.21;73.45;92516.56;2068130;69;20141;-81
2021/03/22 02:33:45;;;;;;;4.80;1.95;;;;;;;2.10;73.59;92512.13;2068162;69;20271;-76
2021/03/22 02:36:14;;;;;;;3.50;1.98;;;;;;;2.11;73.71;92521.22;2068163;69;20132;-83
2021/03/22 02:38:48;;;;;;;2.58;1.83;;;;;;;2.12;73.05;92519.94;2068105;69;20192;-77
2021/03/22 02:41:19;;;;;;;4.10;2.17;;;;;;;2.08;74.15;92514.00;2071075;69;20136;-75
2021/03/22 02:44:01;;;;;;;3.47;2.00;;;;;;;1.99;75.23;92516.06;2069536;69;20521;-82
2021/03/22 02:46:28;;;;;;;4.00;2.30;;;;;;;1.99;74.32;92526.44;2068068;69;20140;-81
2021/03/22 02:48:53;;;;;;;2.72;2.00;;;;;;;2.12;74.33;92526.22;2068054;69;20260;-80
2021/03/22 02:51:53;;;;;;;3.50;1.92;;;;;;;2.19;73.30;92525.44;2068109;69;20233;-82
2021/03/22 02:54:30;;;;;;;3.22;1.73;;;;;;;2.04;73.57;92533.81;2066060;69;20600;-85
2021/03/22 02:57:06;;;;;;;2.58;2.20;;;;;;;2.13;73.50;92538.78;2068001;69;20153;-84
2021/03/22 02:59:45;;;;;;;4.68;2.40;;;;;;;2.10;74.12;92533.63;2068141;69;20532;-79
2021/03/22 03:02:12;;;;;;;3.85;2.10;;;;;;;2.01;73.33;92535.66;2068054;69;20149;-80
2021/03/22 03:04:39;;;;;;;4.25;2.33;;;;;;;2.02;74.43;92536.44;2068063;69;20540;-85
2021/03/22 03:07:11;;;;;;;3.28;2.58;;;;;;;2.15;73.71;92541.75;2064720;69;20235;-81
2021/03/22 03:09:39;;;;;;;3.70;2.47;;;;;;;2.06;74.27;92536.03;2068129;69;20236;-83
2021/03/22 03:12:26;;;;;;;3.00;2.33;;;;;;;2.12;74.36;92533.81;2067946;69;20177;-83
2021/03/22 03:14:54;;;;;;;2.90;2.20;;;;;;;1.79;74.10;92542.03;2067800;69;20136;-83
2021/03/22 03:17:21;;;;;;;3.05;2.30;;;;;;;1.70;75.11;92537.78;2068346;69;20176;-82
2021/03/22 03:19:48;;;;;;;3.25;2.22;;;;;;;1.78;75.48;92541.28;2068182;69;20222;-77
2021/03/22 03:22:14;;;;;;;3.78;2.50;;;;;;;1.65;76.32;92537.97;2069561;69;20268;-85
2021/03/22 03:24:40;;;;;;;2.97;2.17;;;;;;;1.79;75.35;92553.13;2066098;69;20156;-82
2021/03/22 03:27:10;;;;;;;4.07;2.70;;;;;;;1.80;75.30;92549.06;2068173;69;20640;-82
2021/03/22 03:29:37;;;;;;;2.97;2.10;;;;;;;1.83;75.30;92549.97;2068180;69;20156;-77
2021/03/22 03:32:05;;;;;;;3.13;2.28;;;;;;;1.82;74.15;92554.78;2064783;69;20147;-80
2021/03/22 03:34:30;;;;;;;3.75;2.22;;;;;;;1.66;75.53;92554.06;2068129;69;20161;-80
2021/03/22 03:36:56;;;;;;;3.95;2.50;;;;;;;1.60;76.52;92555.53;2068151;69;20478;-79
2021/03/22 03:39:22;;;;;;;4.65;2.60;;;;;;;1.60;75.95;92558.31;2067941;69;20161;-80
2021/03/22 03:41:47;;;;;;;3.85;2.42;;;;;;;1.65;75.33;92560.94;2068119;69;20136;-80
2021/03/22 03:44:14;;;;;;;3.42;2.45;;;;;;;1.83;75.10;92556.25;2068123;69;20136;-82
2021/03/22 03:46:40;;;;;;;3.13;2.47;;;;;;;1.65;75.46;92549.06;2068472;69;20527;-81
2021/03/22 03:49:07;;;;;;;3.28;2.35;;;;;;;1.77;74.90;92550.16;2068122;69;20505;-81
2021/03/22 03:51:34;;;;;;;3.70;2.60;;;;;;;1.65;75.54;92565.72;2068138;69;20570;-84
2021/03/22 03:54:00;;;;;;;3.85;2.60;;;;;;;1.56;74.84;92560.72;2064716;69;20229;-78
2021/03/22 03:56:26;;;;;;;3.47;2.40;;;;;;;1.49;75.25;92567.78;2068203;69;20160;-81
2021/03/22 03:58:54;;;;;;;3.83;2.80;;;;;;;1.61;75.57;92579.97;2068088;69;20244;-83
2021/03/22 04:01:19;;;;;;;5.90;2.83;;;;;;;1.52;75.47;92569.44;2068118;69;20164;-79
2021/03/22 04:03:45;;;;;;;3.65;2.60;;;;;;;1.51;75.06;92571.47;2068321;69;20528;-82
2021/03/22 04:06:18;;;;;;;3.92;3.03;;;;;;;1.58;76.07;92569.25;2068112;69;20611;-81
2021/03/22 04:08:52;;;;;;;3.78;2.70;;;;;;;1.60;75.81;92572.19;2067966;69;20152;-78
2021/03/22 04:11:24;;;;;;;3.50;2.75;;;;;;;1.62;75.04;92566.84;2064750;69;20615;-83
2021/03/22 04:13:51;;;;;;;4.68;2.75;;;;;;;1.57;75.57;92565.00;2068080;69;20230;-81
2021/03/22 04:16:17;;;;;;;4.80;2.88;;;;;;;1.65;75.15;92563.69;2068023;69;20148;-84
2021/03/22 04:18:43;;;;;;;4.18;2.50;;;;;;;1.74;75.06;92577.00;2068165;69;20151;-83
2021/03/22 04:21:12;;;;;;;3.42;2.70;;;;;;;1.76;74.98;92585.50;2068039;69;20144;-78
2021/03/22 04:23:39;;;;;;;5.95;2.95;;;;;;;1.21;77.22;92585.31;2067983;69;20202;-81
2021/03/22 04:26:05;;;;;;;9.85;4.22;;;;;;;1.46;76.27;92589.03;2068075;69;20152;-79
2021/03/22 04:28:32;;;;;;;4.72;3.10;;;;;;;1.53;76.25;92585.53;2068079;69;20524;-81
2021/03/22 04:30:58;;;;;;;4.28;2.67;;;;;;;1.55;75.36;92582.19;2067914;69;20295;-83
2021/03/22 04:33:24;;;;;;;6.57;2.70;;;;;;;1.60;75.38;92574.97;2068138;69;20180;-80
2021/03/22 04:35:50;;;;;;;5.13;2.65;;;;;;;1.64;75.29;92580.88;2067961;69;20247;-83
2021/03/22 04:38:16;;;;;;;5.20;2.30;;;;;;;1.75;75.06;92591.63;2067825;69;20195;-80
2021/03/22 04:40:41;;;;;;;9.32;2.78;;;;;;;1.62;75.25;92587.00;2068027;69;20145;-78
2021/03/22 04:43:07;;;;;;;3.67;2.30;;;;;;;1.56;75.92;92588.47;2067948;69;20218;-84
2021/03/22 04:45:33;;;;;;;4.78;2.33;;;;;;;1.77;75.26;92589.75;2068084;69;20140;-84
2021/03/22 04:47:58;;;;;;;7.85;4.00;;;;;;;1.70;74.64;92595.34;2067968;69;20147;-83
2021/03/22 04:50:26;;;;;;;6.97;3.50;;;;;;;1.59;75.03;92599.22;2068042;69;20226;-82
2021/03/22 04:52:52;;;;;;;5.10;3.30;;;;;;;1.57;74.70;92587.19;2067871;69;20157;-83
2021/03/22 04:55:20;;;;;;;7.15;4.57;;;;;;;1.39;75.90;92581.47;2067965;69;20180;-84
2021/03/22 04:57:49;;;;;;;7.93;4.53;;;;;;;1.37;76.84;92586.81;2064646;69;20172;-82
2021/03/22 05:00:20;;;;;;;7.05;3.92;;;;;;;1.51;75.34;92585.34;2067930;69;20220;-77
2021/03/22 05:02:45;;;;;;;8.68;5.05;;;;;;;1.47;76.39;92589.78;2064657;69;20145;-77
2021/03/22 05:05:11;;;;;;;21.27;9.50;;;;;;;1.55;75.73;92598.09;2067954;69;20504;-76
2021/03/22 05:07:37;;;;;;;39.25;16.33;;;;;;;1.46;76.43;92599.38;2067820;69;20144;-78
2021/03/22 05:10:06;;;;;;;46.53;18.48;;;;;;;1.56;75.66;92600.34;2067960;69;20684;-78
2021/03/22 05:12:32;;;;;;;40.28;16.40;;;;;;;1.46;76.20;92604.94;2067906;69;20141;-77
2021/03/22 05:14:58;;;;;;;14.43;5.88;;;;;;;1.50;75.59;92606.03;2067912;69;20183;-83
2021/03/22 05:17:24;;;;;;;7.07;4.20;;;;;;;1.17;77.40;92601.59;2067957;69;20683;-82
2021/03/22 05:19:50;;;;;;;9.80;4.05;;;;;;;1.50;75.57;92599.75;2068122;69;20173;-83
2021/03/22 05:22:15;;;;;;;7.20;4.28;;;;;;;1.60;75.52;92614.56;2068884;69;20214;-80
2021/03/22 05:24:41;;;;;;;6.07;3.60;;;;;;;1.37;76.58;92619.34;2068892;69;20586;-81
2021/03/22 05:27:07;;;;;;;7.60;3.83;;;;;;;1.48;76.16;92613.47;2067992;69;20133;-81
2021/03/22 05:29:33;;;;;;;8.98;4.25;;;;;;;1.41;75.75;92608.63;2067901;69;20161;-80
2021/03/22 05:32:00;;;;;;;7.50;4.18;;;;;;;1.55;75.54;92601.59;2067825;69;20208;-77
2021/03/22 05:34:26;;;;;;;7.63;4.07;;;;;;;1.51;76.12;92598.47;2068030;69;20163;-78
2021/03/22 05:36:51;;;;;;;8.93;4.20;;;;;;;1.55;75.63;92601.59;2067774;69;20147;-81
2021/03/22 05:39:18;;;;;;;7.82;4.55;;;;;;;1.66;75.11;92598.47;2067517;69;20184;-81
2021/03/22 05:41:57;;;;;;;6.95;4.40;;;;;;;1.62;75.03;92598.09;2067692;69;20156;-82
2021/03/22 05:44:47;;;;;;;7.30;4.00;;;;;;;1.43;75.14;92597.75;2068323;69;20137;-83
2021/03/22 05:47:24;;;;;;;7.32;3.58;;;;;;;1.71;74.40;92599.59;2068287;69;20594;-83
2021/03/22 05:50:20;;;;;;;8.02;3.90;;;;;;;1.75;74.57;92597.19;2064879;69;20240;-83
2021/03/22 05:53:23;;;;;;;8.60;5.85;;;;;;;1.50;75.16;92599.75;2068166;69;20244;-82
2021/03/22 05:55:52;;;;;;;11.48;6.55;;;;;;;1.57;75.51;92593.50;2068169;69;20601;-79
2021/03/22 05:58:25;;;;;;;11.65;7.50;;;;;;;1.59;75.62;92596.44;2068155;69;20141;-78
2021/03/22 06:01:02;;;;;;;14.43;6.93;;;;;;;1.75;75.45;92608.28;2068434;69;20618;-80
2021/03/22 06:03:35;;;;;;;11.40;6.57;;;;;;;1.76;75.14;92609.75;2068465;69;20212;-83
2021/03/22 06:06:11;;;;;;;11.50;7.00;;;;;;;1.83;74.75;92608.25;2068337;69;20601;-82
2021/03/22 06:08:59;;;;;;;11.40;6.80;;;;;;;1.89;74.64;92606.06;2067994;69;20183;-80
2021/03/22 06:11:34;;;;;;;12.60;6.70;;;;;;;1.85;74.85;92617.53;2068298;69;20144;-83
2021/03/22 06:14:07;;;;;;;11.95;6.50;;;;;;;1.93;74.96;92618.25;2068152;69;20159;-81
2021/03/22 06:16:42;;;;;;;9.23;5.78;;;;;;;1.83;74.23;92628.44;2068069;69;20156;-84
2021/03/22 06:19:14;;;;;;;42.05;19.40;;;;;;;1.74;74.47;92617.88;2068218;69;20152;-82
2021/03/22 06:21:44;;;;;;;14.05;6.65;;;;;;;1.17;76.72;92613.41;2068220;69;20255;-82
2021/03/22 06:24:15;;;;;;;11.98;5.85;;;;;;;1.43;76.01;92619.94;2067938;69;20184;-81
2021/03/22 06:26:49;;;;;;;12.57;5.57;;;;;;;1.59;75.79;92620.66;2068070;69;20555;-81
2021/03/22 06:29:37;;;;;;;11.10;6.15;;;;;;;1.94;74.88;92624.56;2064787;69;20140;-82
2021/03/22 06:32:05;;;;;;;10.52;6.32;;;;;;;2.14;73.83;92620.06;2068158;69;20179;-82
2021/03/22 06:35:00;;;;;;;10.90;6.28;;;;;;;2.13;73.87;92626.94;2068037;69;20208;-81
2021/03/22 06:37:45;;;;;;;15.55;10.13;;;;;;;1.80;74.68;92631.59;2067953;69;20255;-80
2021/03/22 06:40:25;;;;;;;15.23;8.82;;;;;;;1.66;76.04;92626.22;2068025;69;20240;-78
2021/03/22 06:43:12;;;;;;;17.27;9.38;;;;;;;2.21;74.55;92625.63;2068173;69;20127;-77
2021/03/22 06:45:46;;;;;;;21.23;10.70;;;;;;;2.50;73.33;92642.03;2068177;69;20125;-82
2021/03/22 06:48:13;;;;;;;17.65;10.30;;;;;;;2.49;73.05;92632.22;2068186;69;20156;-80
2021/03/22 06:50:39;;;;;;;16.60;10.13;;;;;;;2.29;73.69;92633.91;2068138;69;20148;-80
2021/03/22 06:53:05;;;;;;;17.15;10.63;;;;;;;2.42;73.75;92642.03;2068200;69;20133;-82
2021/03/22 06:55:41;;;;;;;17.27;10.85;;;;;;;2.60;73.56;92645.72;2068342;69;20141;-79
2021/03/22 06:58:23;;;;;;;18.92;11.07;;;;;;;2.75;72.55;92642.16;2068253;69;20141;-87
2021/03/22 07:00:49;;;;;;;15.70;10.15;;;;;;;2.72;72.72;92652.34;2068269;69;20197;-81
2021/03/22 07:03:26;;;;;;;17.10;10.48;;;;;;;2.89;72.67;92651.00;2068280;69;20509;-85
2021/03/22 07:05:52;;;;;;;15.88;9.20;;;;;;;3.10;71.98;92648.66;2068256;69;20137;-82
2021/03/22 07:08:37;;;;;;;13.30;8.05;;;;;;;3.20;71.75;92643.97;2068091;69;20210;-86
2021/03/22 07:11:07;;;;;;;18.15;9.60;;;;;;;2.81;72.42;92639.91;2065061;69;20141;-82
2021/03/22 07:13:33;;;;;;;18.20;9.68;;;;;;;2.84;71.73;92646.34;2068412;69;20154;-85
2021/03/22 07:16:02;;;;;;;20.50;11.18;;;;;;;2.47;72.50;92648.69;2068250;69;20136;-84
2021/03/22 07:18:33;;;;;;;24.80;14.73;;;;;;;2.29;72.85;92645.03;2068221;69;20140;-84
2021/03/22 07:20:59;;;;;;;13.93;8.50;;;;;;;2.53;72.41;92647.22;2069348;69;20648;-80
2021/03/22 07:23:25;;;;;;;17.70;9.52;;;;;;;3.04;71.41;92643.31;2070302;69;20348;-84
2021/03/22 07:26:01;;;;;;;17.60;9.77;;;;;;;3.14;70.57;92648.28;2068356;69;20171;-82
2021/03/22 07:28:32;;;;;;;14.07;9.05;;;;;;;3.24;70.42;92652.66;2068319;69;20239;-82
2021/03/22 07:31:12;;;;;;;15.50;8.40;;;;;;;3.15;70.31;92656.06;2068178;69;20140;-81
2021/03/22 07:34:10;;;;;;;16.05;9.15;;;;;;;3.30;70.04;92658.78;2068218;69;20531;-85
2021/03/22 07:36:48;;;;;;;17.42;9.45;;;;;;;3.56;69.28;92657.50;2068180;69;20172;-79
2021/03/22 07:39:13;;;;;;;14.20;8.43;;;;;;;3.75;68.38;92656.25;2068099;69;20149;-81
2021/03/22 07:41:55;;;;;;;12.82;7.95;;;;;;;3.49;68.68;92657.56;2064783;69;20576;-84
2021/03/22 07:44:39;;;;;;;10.93;6.93;;;;;;;3.59;68.08;92663.97;2068124;69;20148;-87
2021/03/22 07:47:31;;;;;;;11.00;5.55;;;;;;;3.64;67.20;92665.06;2064859;69;20179;-85
2021/03/22 07:50:12;;;;;;;12.02;6.75;;;;;;;3.63;67.69;92675.47;2068150;69;20180;-81
2021/03/22 07:53:02;;;;;;;11.55;6.30;;;;;;;3.46;67.08;92672.59;2064621;69;20627;-79
2021/03/22 07:55:37;;;;;;;12.48;6.20;;;;;;;3.96;66.35;92678.22;2068394;69;20539;-89
2021/03/22 07:58:14;;;;;;;14.00;7.28;;;;;;;3.60;66.07;92670.28;2068299;69;20176;-84
2021/03/22 08:01:04;;;;;;;15.25;8.32;;;;;;;3.41;67.36;92676.34;2068475;69;20156;-79
2021/03/22 08:04:11;;;;;;;12.15;7.72;;;;;;;4.22;65.64;92688.03;2064739;69;20172;-80
2021/03/22 08:06:53;;;;;;;15.68;8.15;;;;;;;3.55;66.22;92681.06;2060973;69;20143;-82
2021/03/22 08:09:29;;;;;;;13.25;6.78;;;;;;;3.81;65.95;92687.41;2068171;69;20541;-81
2021/03/22 08:12:17;;;;;;;14.65;7.68;;;;;;;4.34;65.63;92689.03;2068139;69;20140;-79
2021/03/22 08:14:44;;;;;;;13.63;7.53;;;;;;;4.35;64.49;92687.72;2068249;69;20137;-77
2021/03/22 08:17:12;;;;;;;15.20;7.65;;;;;;;4.43;64.48;92693.22;2068515;69;20145;-87
2021/03/22 08:19:40;;;;;;;12.10;7.38;;;;;;;4.81;63.48;92696.41;2068348;69;20145;-82
2021/03/22 08:22:12;;;;;;;13.85;7.78;;;;;;;4.66;63.43;92701.38;2068179;69;20143;-81
2021/03/22 08:24:47;;;;;;;12.48;6.93;;;;;;;3.62;65.31;92696.25;2067973;69;20602;-86
2021/03/22 08:27:19;;;;;;;13.82;7.60;;;;;;;3.64;66.75;92712.38;2068099;69;20229;-85
2021/03/22 08:29:59;;;;;;;;;;;;;;;4.86;63.85;92714.19;2065040;69;20147;-83
2021/03/22 08:32:40;;;;;;;13.85;7.68;;;;;;;4.61;63.22;92722.63;2068114;69;20128;-81
2021/03/22 08:35:25;;;;;;;17.70;8.10;;;;;;;4.97;63.46;92713.69;2068154;69;20138;-84
2021/03/22 08:37:54;;;;;;;16.95;7.20;;;;;;;5.33;62.02;92715.16;2068007;69;20157;-84
2021/03/22 08:40:49;;;;;;;12.70;7.57;;;;;;;5.17;61.98;92717.38;2067927;69;20160;-83
2021/03/22 08:43:33;;;;;;;12.70;7.15;;;;;;;4.66;62.91;92713.28;2068013;69;20136;-85
2021/03/22 08:46:20;;;;;;;13.13;7.47;;;;;;;5.18;62.31;92712.53;2067981;69;20143;-84
2021/03/22 08:48:46;;;;;;;13.10;7.15;;;;;;;5.03;61.64;92714.19;2068090;69;20159;-84
2021/03/22 08:51:26;;;;;;;16.25;7.45;;;;;;;4.64;62.20;92710.31;2067920;69;20161;-84
2021/03/22 08:53:53;;;;;;;16.45;7.22;;;;;;;5.04;61.87;92709.34;2067858;69;20540;-83
2021/03/22 08:56:40;;;;;;;11.85;6.47;;;;;;;5.86;59.64;92706.09;2064614;69;20248;-83
2021/03/22 08:59:10;;;;;;;12.32;5.90;;;;;;;5.86;58.98;92716.50;2067955;69;20141;-83
2021/03/22 09:01:42;;;;;;;13.10;5.93;;;;;;;5.55;58.87;92722.53;2068099;69;20149;-81
2021/03/22 09:04:29;;;;;;;12.70;5.88;;;;;;;5.68;59.64;92718.66;2068198;69;20647;-80
2021/03/22 09:07:09;;;;;;;11.18;5.78;;;;;;;6.14;58.57;92714.47;2068165;69;20133;-78
2021/03/22 09:09:44;;;;;;;10.80;6.85;;;;;;;6.20;58.39;92707.31;2067871;69;20152;-80
2021/03/22 09:12:33;;;;;;;12.35;7.15;;;;;;;6.39;56.77;92705.91;2068086;69;20161;-78
2021/03/22 09:15:00;;;;;;;10.85;6.00;;;;;;;6.53;56.99;92707.69;2068037;69;20673;-84
2021/03/22 09:17:31;;;;;;;10.75;5.90;;;;;;;6.62;56.56;92709.03;2067988;69;20144;-83
2021/03/22 09:20:18;;;;;;;10.23;6.20;;;;;;;6.55;56.62;92710.66;2068268;69;20180;-82
2021/03/22 09:22:51;;;;;;;12.25;6.18;;;;;;;6.98;56.50;92713.81;2068431;69;20167;-81
2021/03/22 09:25:55;;;;;;;15.52;6.70;;;;;;;6.13;58.03;92713.00;2067956;69;20604;-83
2021/03/22 09:28:23;;;;;;;11.70;5.57;;;;;;;6.62;55.87;92706.97;2068095;69;20267;-82
2021/03/22 09:30:55;;;;;;;12.68;5.68;;;;;;;6.67;55.94;92701.69;2067940;69;20141;-81
2021/03/22 09:33:48;;;;;;;10.32;5.13;;;;;;;5.96;56.00;92702.66;2068176;69;20191;-82
2021/03/22 09:36:33;;;;;;;;;;;;;;;5.99;57.16;92709.84;2068003;69;20158;-82
2021/03/22 09:39:03;;;;;;;10.35;4.25;;;;;;;6.47;54.42;92715.63;2067708;69;20045;-82
2021/03/22 09:41:59;;;;;;;11.10;4.60;;;;;;;5.84;54.03;92722.69;2068015;69;20516;-83
2021/03/22 09:44:32;;;;;;;10.07;4.32;;;;;;;6.02;53.31;92717.06;2068296;69;20193;-83
2021/03/22 09:47:12;;;;;;;13.43;4.85;;;;;;;6.89;51.72;92717.34;2067839;69;20156;-82
2021/03/22 09:50:04;;;;;;;8.93;4.13;;;;;;;5.90;49.41;92722.41;2064549;69;20157;-83
2021/03/22 09:53:01;;;;;;;11.30;4.20;;;;;;;5.80;50.24;92725.16;2067732;69;20163;-79
2021/03/22 09:55:26;;;;;;;6.40;3.60;;;;;;;6.50;49.28;92727.69;2067759;69;20149;-82
2021/03/22 09:57:57;;;;;;;8.55;3.92;;;;;;;6.83;49.90;92723.25;2067784;69;20565;-82
2021/03/22 10:00:27;;;;;;;7.85;4.00;;;;;;;6.25;49.73;92722.31;2067847;69;20152;-83
2021/03/22 10:02:57;;;;;;;10.20;3.63;;;;;;;6.50;49.08;92722.09;2067826;69;20149;-83
2021/03/22 10:05:23;;;;;;;9.38;3.65;;;;;;;6.82;50.23;92721.75;2067935;69;20154;-81
2021/03/22 10:08:24;;;;;;;9.77;3.85;;;;;;;7.68;49.80;92727.97;2067950;69;20206;-83
2021/03/22 10:10:52;;;;;;;9.13;3.72;;;;;;;7.39;48.24;92725.19;2063826;69;20164;-83
2021/03/22 10:13:42;;;;;;;9.60;3.65;;;;;;;7.35;47.33;92725.63;2067963;69;20169;-83
2021/03/22 10:16:18;;;;;;;6.70;3.60;;;;;;;6.48;47.22;92728.28;2067862;69;20140;-82
2021/03/22 10:19:16;;;;;;;9.45;3.75;;;;;;;7.30;47.12;92728.72;2067908;69;20235;-83
2021/03/22 10:21:48;;;;;;;8.40;3.33;;;;;;;7.33;44.58;92730.34;2067892;69;20179;-80
2021/03/22 10:24:44;;;;;;;9.23;3.58;;;;;;;6.40;45.98;92726.94;2067739;69;20129;-82
2021/03/22 10:27:23;;;;;;;7.55;3.38;;;;;;;7.47;44.32;92725.03;2067701;69;20775;-82
2021/03/22 10:29:49;;;;;;;5.90;2.78;;;;;;;7.05;45.70;92731.78;2068145;69;20597;-81
2021/03/22 10:32:22;;;;;;;7.38;3.42;;;;;;;5.60;46.44;92734.75;2068255;69;20142;-82
2021/03/22 10:35:04;;;;;;;6.65;3.00;;;;;;;6.85;44.63;92731.03;2068398;69;20156;-83
2021/03/22 10:37:37;;;;;;;8.75;3.08;;;;;;;7.78;45.26;92733.56;2068084;69;20141;-82
2021/03/22 10:40:27;;;;;;;6.30;2.95;;;;;;;6.99;44.08;92731.34;2068272;69;20620;-83
2021/03/22 10:42:55;;;;;;;9.13;3.15;;;;;;;6.52;44.33;92739.06;2064925;69;20144;-76
2021/03/22 10:45:24;;;;;;;10.43;3.50;;;;;;;6.89;43.41;92734.13;2068182;69;20192;-75
2021/03/22 10:47:55;;;;;;;5.03;2.63;;;;;;;6.49;43.22;92724.16;2068258;69;20176;-80
2021/03/22 10:50:25;;;;;;;6.85;2.90;;;;;;;7.38;42.08;92726.53;2068196;69;20255;-83
2021/03/22 10:53:20;;;;;;;5.70;2.92;;;;;;;7.20;42.04;92728.72;2068113;69;20155;-78
2021/03/22 10:55:48;;;;;;;8.45;3.08;;;;;;;6.29;41.72;92731.03;2063191;69;20625;-80
2021/03/22 10:58:33;;;;;;;7.93;3.30;;;;;;;6.73;43.29;92730.13;2064895;69;20178;-77
2021/03/22 11:01:02;;;;;;;6.35;2.67;;;;;;;6.31;43.04;92729.09;2064745;69;20223;-81
2021/03/22 11:03:28;;;;;;;7.53;2.80;;;;;;;6.18;43.13;92746.25;2064387;69;20141;-77
2021/03/22 11:05:55;;;;;;;6.47;3.30;;;;;;;6.61;41.38;92736.28;2064175;69;20230;-79
2021/03/22 11:08:33;;;;;;;6.18;3.10;;;;;;;7.17;43.01;92738.31;2064086;69;20184;-75
2021/03/22 11:11:05;;;;;;;7.13;2.80;;;;;;;6.25;42.38;92739.84;2064756;69;20584;-78
2021/03/22 11:13:34;;;;;;;6.22;2.80;;;;;;;5.71;41.61;92750.25;2064174;69;20161;-81
2021/03/22 11:16:01;;;;;;;6.60;3.00;;;;;;;6.30;42.11;92752.81;2064600;69;20593;-75
2021/03/22 11:18:29;;;;;;;9.90;2.67;;;;;;;6.62;41.89;92743.34;2061408;69;20335;-83
2021/03/22 11:20:56;;;;;;;29.67;15.25;;;;;;;6.92;40.84;92751.81;2064650;69;20223;-81
2021/03/22 11:23:27;;;;;;;14.27;5.30;;;;;;;6.51;42.72;92741.13;2064532;69;20148;-75
2021/03/22 11:25:55;;;;;;;5.82;2.40;;;;;;;6.67;42.41;92750.00;2064719;69;20244;-80
2021/03/22 11:28:20;;;;;;;7.18;2.70;;;;;;;7.55;40.84;92745.97;2064802;69;20235;-77
2021/03/22 11:30:52;;;;;;;6.68;2.92;;;;;;;7.71;39.57;92748.47;2064721;69;20153;-78
2021/03/22 11:33:45;;;;;;;9.45;3.85;;;;;;;7.60;38.67;92736.53;2064699;69;20694;-77
2021/03/22 11:36:19;;;;;;;6.35;3.17;;;;;;;8.00;39.29;92737.94;2064637;69;20507;-77
2021/03/22 11:38:57;;;;;;;8.52;3.40;;;;;;;7.16;39.31;92734.03;2064600;69;20140;-75
2021/03/22 11:41:25;;;;;;;7.78;3.03;;;;;;;10.09;36.79;92744.84;2061396;69;20133;-75
2021/03/22 11:44:21;;;;;;;8.48;3.90;;;;;;;8.29;37.43;92739.94;2065587;69;20145;-79
2021/03/22 11:46:53;;;;;;;7.50;2.80;;;;;;;9.44;36.16;92737.88;2064624;69;20164;-79
2021/03/22 11:49:40;;;;;;;6.70;2.92;;;;;;;7.76;38.36;92734.16;2064476;69;20141;-74
2021/03/22 11:52:27;;;;;;;9.57;3.40;;;;;;;9.26;36.50;92736.69;2064609;69;20160;-73
2021/03/22 11:54:53;;;;;;;6.53;2.95;;;;;;;7.95;37.62;92727.78;2064620;69;20148;-75
2021/03/22 11:57:22;;;;;;;7.80;3.13;;;;;;;7.61;38.11;92721.19;2061028;69;20169;-75
2021/03/22 11:59:53;;;;;;;7.53;3.05;;;;;;;9.31;37.07;92735.59;2064485;69;20224;-74
2021/03/22 12:02:21;;;;;;;7.40;3.40;;;;;;;7.45;37.55;92730.50;2064651;69;20141;-76
2021/03/22 12:05:00;;;;;;;9.05;3.25;;;;;;;7.46;38.93;92729.16;2064648;69;20610;-78
2021/03/22 12:07:38;;;;;;;6.72;3.45;;;;;;;8.33;37.51;92729.72;2061141;69;20145;-78